Time;durP1;ratioP1;P1;durP2;ratioP2;P2;SDS_P1;SDS_P2;PMS_P1;PMS_P2;Temp;Humidity;BMP_temperature;BMP_pressure;BME280_temperature;BME280_humidity;BME280_pressure;Samples;Min_cycle;Max_cycle;Signal;HPM_P1;HPM_P2
2024/01/19 00:00:49;;;;;;;11.90;3.95;;;-1.20;99.90;;;;;;6339703;22;19999;-89
2024/01/19 00:03:15;;;;;;;13.93;4.50;;;-1.10;99.90;;;;;;6339652;22;20003;-87
2024/01/19 00:05:41;;;;;;;6.22;3.60;;;-1.10;99.90;;;;;;6340939;22;20018;-89
2024/01/19 00:08:07;;;;;;;13.02;5.30;;;-1.00;99.90;;;;;;6344461;22;20048;-87
2024/01/19 00:10:33;;;;;;;9.25;3.90;;;-1.00;99.90;;;;;;6346584;22;20002;-87
2024/01/19 00:12:59;;;;;;;14.95;4.05;;;-0.90;99.90;;;;;;6344624;22;20449;-87
2024/01/19 00:15:24;;;;;;;8.13;4.40;;;-0.90;99.90;;;;;;6340602;22;20010;-86
2024/01/19 00:17:50;;;;;;;8.50;3.53;;;-0.80;99.90;;;;;;6338154;22;20346;-87
2024/01/19 00:20:16;;;;;;;9.75;3.67;;;-0.80;99.90;;;;;;6337688;22;20011;-86
2024/01/19 00:22:42;;;;;;;10.23;3.88;;;-0.70;99.90;;;;;;6338962;22;20006;-86
2024/01/19 00:25:09;;;;;;;10.93;3.50;;;-0.60;99.90;;;;;;6337318;22;20003;-87
2024/01/19 00:27:35;;;;;;;13.00;3.10;;;-0.50;99.90;;;;;;6311657;22;20018;-90
2024/01/19 00:30:02;;;;;;;6.57;3.38;;;-0.50;99.90;;;;;;6338283;22;20429;-87
2024/01/19 00:32:27;;;;;;;9.25;3.50;;;-0.50;99.90;;;;;;6336942;22;20002;-86
2024/01/19 00:34:53;;;;;;;4.95;3.05;;;-0.40;99.90;;;;;;6336505;22;20324;-86
2024/01/19 00:37:18;;;;;;;8.68;3.40;;;-0.40;99.90;;;;;;6337274;22;20381;-86
2024/01/19 00:39:45;;;;;;;8.30;3.20;;;-0.30;99.90;;;;;;6337247;22;20086;-86
2024/01/19 00:42:11;;;;;;;7.25;3.38;;;-0.40;99.90;;;;;;6339308;22;20010;-88
2024/01/19 00:44:37;;;;;;;10.50;3.30;;;-0.30;99.90;;;;;;6338225;22;19995;-85
2024/01/19 00:47:04;;;;;;;7.30;3.40;;;-0.30;99.90;;;;;;6338544;22;20056;-86
2024/01/19 00:49:30;;;;;;;5.32;3.53;;;-0.30;99.90;;;;;;6337397;22;20003;-86
2024/01/19 00:51:57;;;;;;;7.53;2.92;;;-0.30;99.90;;;;;;6337282;22;20014;-86
2024/01/19 00:54:22;;;;;;;7.57;3.08;;;-0.30;99.90;;;;;;6338577;22;20055;-86
2024/01/19 00:56:48;;;;;;;10.90;3.08;;;-0.20;99.90;;;;;;6337197;22;20404;-87
2024/01/19 00:59:14;;;;;;;3.83;2.28;;;-0.20;99.90;;;;;;6337631;22;20026;-87
2024/01/19 01:01:40;;;;;;;5.05;2.47;;;-0.20;99.90;;;;;;6337582;22;20052;-89
2024/01/19 01:04:05;;;;;;;7.97;2.13;;;-0.10;99.90;;;;;;6337995;22;20038;-87
2024/01/19 01:06:32;;;;;;;6.82;2.45;;;-0.10;99.90;;;;;;6337930;22;19999;-89
2024/01/19 01:08:57;;;;;;;5.30;2.55;;;-0.10;99.90;;;;;;6338815;22;20007;-89
2024/01/19 01:11:23;;;;;;;3.47;2.17;;;0.00;99.90;;;;;;6339068;22;20055;-87
2024/01/19 01:13:49;;;;;;;5.85;2.55;;;0.00;99.90;;;;;;6338742;22;20024;-86
2024/01/19 01:16:15;;;;;;;6.07;3.10;;;0.00;99.90;;;;;;6337431;22;20013;-87
2024/01/19 01:18:41;;;;;;;13.48;2.20;;;0.00;99.90;;;;;;6338707;22;20029;-86
2024/01/19 01:21:07;;;;;;;8.75;2.75;;;0.00;99.90;;;;;;6338872;22;20002;-91
2024/01/19 01:23:33;;;;;;;5.32;1.90;;;0.10;99.90;;;;;;6340026;22;20036;-85
2024/01/19 01:25:59;;;;;;;5.97;1.52;;;0.10;99.90;;;;;;6341142;22;20077;-89
2024/01/19 01:28:24;;;;;;;3.22;1.75;;;0.20;99.90;;;;;;6342275;22;20074;-89
2024/01/19 01:30:50;;;;;;;2.10;1.45;;;0.20;99.90;;;;;;6338520;22;20052;-86
2024/01/19 01:33:16;;;;;;;9.68;3.08;;;0.20;99.90;;;;;;6338348;22;19999;-88
2024/01/19 01:35:41;;;;;;;7.65;1.70;;;0.30;99.90;;;;;;6336900;22;20002;-87
2024/01/19 01:38:07;;;;;;;8.05;1.40;;;0.30;99.90;;;;;;6336445;22;20021;-88
2024/01/19 01:40:33;;;;;;;2.47;1.30;;;0.40;99.90;;;;;;6337002;22;19999;-87
2024/01/19 01:43:04;;;;;;;4.85;1.20;;;0.40;99.90;;;;;;6338560;22;20002;-86
2024/01/19 01:45:30;;;;;;;7.00;2.13;;;0.40;99.90;;;;;;6338817;22;20508;-91
2024/01/19 01:47:56;;;;;;;5.38;2.00;;;0.50;99.90;;;;;;6336220;22;20073;-87
2024/01/19 01:50:22;;;;;;;5.25;1.80;;;0.50;99.90;;;;;;6338203;22;20001;-88
2024/01/19 01:52:50;;;;;;;7.07;2.33;;;0.60;99.90;;;;;;6336441;22;20439;-87
2024/01/19 01:55:16;;;;;;;4.82;1.80;;;0.60;99.90;;;;;;6336591;22;20009;-87
2024/01/19 01:57:43;;;;;;;5.65;2.03;;;0.60;99.90;;;;;;6341567;22;20510;-87
2024/01/19 02:00:10;;;;;;;5.47;2.08;;;0.60;99.90;;;;;;6340842;22;20003;-88
2024/01/19 02:02:37;;;;;;;9.50;2.28;;;0.50;99.90;;;;;;6368946;22;20025;-88
2024/01/19 02:05:05;;;;;;;4.70;1.67;;;0.50;99.90;;;;;;6341348;22;20002;-86
2024/01/19 02:07:31;;;;;;;2.97;1.90;;;0.50;99.90;;;;;;6341305;22;20006;-87
2024/01/19 02:09:57;;;;;;;9.32;2.22;;;0.50;99.90;;;;;;6341788;22;20077;-88
2024/01/19 02:12:24;;;;;;;6.32;3.08;;;0.40;99.90;;;;;;6342183;22;20375;-86
2024/01/19 02:14:51;;;;;;;7.50;1.90;;;0.40;99.90;;;;;;6342621;22;20006;-88
2024/01/19 02:17:17;;;;;;;3.30;1.50;;;0.30;99.90;;;;;;6315591;22;20020;-87
2024/01/19 02:19:43;;;;;;;2.83;1.40;;;0.30;99.90;;;;;;6341811;22;20026;-88
2024/01/19 02:22:09;;;;;;;8.82;2.08;;;0.20;99.90;;;;;;6369459;22;20029;-88
2024/01/19 02:24:36;;;;;;;6.13;2.15;;;0.10;99.90;;;;;;6342152;22;20007;-88
2024/01/19 02:27:02;;;;;;;8.38;1.73;;;0.10;99.90;;;;;;6342417;22;20089;-88
2024/01/19 02:29:28;;;;;;;5.80;1.83;;;0.00;99.90;;;;;;6369810;22;20009;-88
2024/01/19 02:31:54;;;;;;;4.53;1.60;;;-0.10;99.90;;;;;;6341445;22;20002;-91
2024/01/19 02:34:19;;;;;;;6.00;1.95;;;-0.10;99.90;;;;;;6342297;22;20478;-85
2024/01/19 02:36:45;;;;;;;6.72;2.20;;;-0.20;99.90;;;;;;6342008;22;20025;-87
2024/01/19 02:39:11;;;;;;;4.60;1.65;;;-0.20;99.90;;;;;;6370082;22;20002;-87
2024/01/19 02:41:38;;;;;;;6.15;1.92;;;-0.30;99.90;;;;;;6369159;22;20011;-89
2024/01/19 02:44:06;;;;;;;5.05;2.03;;;-0.30;99.90;;;;;;6341846;22;20094;-87
2024/01/19 02:46:31;;;;;;;5.70;1.67;;;-0.40;99.90;;;;;;6343168;22;20002;-88
2024/01/19 02:48:57;;;;;;;3.85;2.40;;;-0.40;99.90;;;;;;6372200;22;19998;-88
2024/01/19 02:51:23;;;;;;;6.95;1.88;;;-0.50;99.90;;;;;;6343907;22;20336;-88
2024/01/19 02:53:48;;;;;;;9.15;3.53;;;-0.40;99.90;;;;;;6344290;22;20034;-88
2024/01/19 02:56:14;;;;;;;5.68;1.90;;;-0.50;99.90;;;;;;6370935;22;20006;-88
2024/01/19 02:58:40;;;;;;;5.80;1.90;;;-0.40;99.90;;;;;;6371131;22;20140;-89
2024/01/19 03:01:08;;;;;;;2.50;1.75;;;-0.50;99.90;;;;;;6344048;22;19999;-88
2024/01/19 03:03:33;;;;;;;4.78;1.60;;;-0.50;99.90;;;;;;6344802;22;20006;-88
2024/01/19 03:05:59;;;;;;;4.85;2.20;;;-0.60;99.90;;;;;;6317610;22;20381;-89
2024/01/19 03:08:25;;;;;;;4.13;1.85;;;-0.60;99.90;;;;;;6343650;22;20333;-88
2024/01/19 03:10:51;;;;;;;11.32;2.35;;;-0.70;99.90;;;;;;6371377;22;20026;-88
2024/01/19 03:13:17;;;;;;;6.15;2.30;;;-0.70;99.90;;;;;;6343283;22;20026;-89
2024/01/19 03:15:43;;;;;;;3.33;1.92;;;-0.70;99.90;;;;;;6343427;22;20029;-88
2024/01/19 03:18:09;;;;;;;3.92;2.03;;;-0.70;99.90;;;;;;6343738;22;20014;-88
2024/01/19 03:20:34;;;;;;;8.05;2.33;;;-0.70;99.90;;;;;;6342312;22;20066;-88
2024/01/19 03:23:00;;;;;;;12.88;2.42;;;-0.70;99.90;;;;;;6342468;22;20010;-88
2024/01/19 03:25:26;;;;;;;6.70;2.67;;;-0.80;99.90;;;;;;6343243;22;20053;-88
2024/01/19 03:27:52;;;;;;;4.85;2.08;;;-0.80;99.90;;;;;;6316712;22;20011;-88
2024/01/19 03:30:18;;;;;;;4.25;2.33;;;-0.80;99.90;;;;;;6341934;22;20009;-86
2024/01/19 03:32:43;;;;;;;5.55;2.42;;;-0.80;99.90;;;;;;6342605;22;19998;-88
2024/01/19 03:35:09;;;;;;;6.93;2.30;;;-0.80;99.90;;;;;;6344789;22;20021;-88
2024/01/19 03:37:35;;;;;;;7.07;3.08;;;-0.70;99.90;;;;;;6318699;22;20021;-87
2024/01/19 03:40:00;;;;;;;6.10;1.83;;;-0.80;99.90;;;;;;6344670;22;20006;-87
2024/01/19 03:42:27;;;;;;;5.90;2.10;;;-0.80;99.90;;;;;;6344188;22;20009;-87
2024/01/19 03:44:53;;;;;;;5.00;2.65;;;-0.80;99.90;;;;;;6372892;22;19995;-87
2024/01/19 03:47:18;;;;;;;4.00;1.85;;;-0.80;99.90;;;;;;6344957;22;20008;-86
2024/01/19 03:49:44;;;;;;;7.50;2.35;;;-0.90;99.90;;;;;;6344809;22;20010;-86
2024/01/19 03:52:10;;;;;;;4.38;2.22;;;-0.90;99.90;;;;;;6353271;22;20028;-86
2024/01/19 03:54:37;;;;;;;5.97;3.22;;;-0.70;99.90;;;;;;6377735;22;20075;-88
2024/01/19 03:57:05;;;;;;;4.05;2.55;;;-0.70;99.90;;;;;;6353757;22;20022;-89
2024/01/19 03:59:31;;;;;;;7.90;2.65;;;-0.60;99.90;;;;;;6360858;22;20097;-87
2024/01/19 04:01:56;;;;;;;11.88;2.85;;;-0.60;99.90;;;;;;6354184;22;20006;-87
2024/01/19 04:04:23;;;;;;;10.65;3.78;;;-0.60;99.90;;;;;;6343504;22;20417;-88
2024/01/19 04:06:49;;;;;;;8.70;3.25;;;-0.50;99.90;;;;;;6343467;22;20005;-87
2024/01/19 04:09:16;;;;;;;6.75;2.95;;;-0.60;99.90;;;;;;6370672;22;20002;-86
2024/01/19 04:11:42;;;;;;;7.00;3.03;;;-0.60;99.90;;;;;;6343003;22;20034;-88
2024/01/19 04:14:08;;;;;;;11.63;3.60;;;-0.60;99.90;;;;;;6342586;22;20010;-87
2024/01/19 04:16:34;;;;;;;7.38;3.63;;;-0.60;99.90;;;;;;6342731;22;20033;-87
2024/01/19 04:19:00;;;;;;;2.97;2.30;;;-0.60;99.90;;;;;;6342402;22;20002;-87
2024/01/19 04:21:25;;;;;;;7.00;3.45;;;-0.60;99.90;;;;;;6342385;22;19999;-88
2024/01/19 04:23:51;;;;;;;9.38;3.35;;;-0.50;99.90;;;;;;6342974;22;20081;-87
2024/01/19 04:26:16;;;;;;;12.70;4.68;;;-0.40;99.90;;;;;;6342666;22;20002;-88
2024/01/19 04:28:43;;;;;;;9.82;3.55;;;-0.40;99.90;;;;;;6342415;22;20010;-88
2024/01/19 04:31:09;;;;;;;6.22;2.67;;;-0.30;99.90;;;;;;6341640;22;20016;-87
2024/01/19 04:33:34;;;;;;;4.63;2.42;;;-0.40;99.90;;;;;;6342105;22;19998;-88
2024/01/19 04:36:00;;;;;;;4.50;2.53;;;-0.40;99.90;;;;;;6369285;22;19999;-87
2024/01/19 04:38:26;;;;;;;8.35;2.90;;;-0.40;99.90;;;;;;6369148;22;20002;-87
2024/01/19 04:40:51;;;;;;;11.68;4.43;;;-0.40;99.90;;;;;;6342273;22;20086;-89
2024/01/19 04:43:17;;;;;;;5.50;2.95;;;-0.40;99.90;;;;;;6341700;22;20006;-87
2024/01/19 04:45:44;;;;;;;4.43;2.38;;;-0.50;99.90;;;;;;6341941;22;20034;-88
2024/01/19 04:48:09;;;;;;;4.75;2.70;;;-0.30;99.90;;;;;;6342218;22;20047;-88
2024/01/19 04:50:35;;;;;;;12.38;4.97;;;-0.30;99.90;;;;;;6369879;22;20002;-87
2024/01/19 04:53:01;;;;;;;7.75;3.17;;;-0.20;99.90;;;;;;6369552;22;19998;-87
2024/01/19 04:55:27;;;;;;;4.03;3.50;;;-0.20;99.90;;;;;;6369341;22;20029;-88
2024/01/19 04:57:53;;;;;;;6.40;3.75;;;-0.20;99.90;;;;;;6369969;22;20044;-88
2024/01/19 05:00:21;;;;;;;9.27;3.28;;;-0.10;99.90;;;;;;6343094;22;20018;-88
2024/01/19 05:02:48;;;;;;;12.85;3.70;;;0.00;99.90;;;;;;6343024;22;20014;-88
2024/01/19 05:05:14;;;;;;;3.97;2.80;;;0.00;99.90;;;;;;6342189;22;20081;-89
2024/01/19 05:07:40;;;;;;;4.68;2.92;;;0.00;99.90;;;;;;6369502;22;20414;-88
2024/01/19 05:10:06;;;;;;;4.80;3.53;;;0.00;99.90;;;;;;6341703;22;20150;-87
2024/01/19 05:12:32;;;;;;;5.03;3.42;;;0.00;99.90;;;;;;6342683;22;20002;-88
2024/01/19 05:14:58;;;;;;;6.40;3.30;;;0.00;99.90;;;;;;6342558;22;20098;-87
2024/01/19 05:17:24;;;;;;;11.35;3.00;;;0.00;99.90;;;;;;6369796;22;20037;-87
2024/01/19 05:19:49;;;;;;;6.75;2.90;;;0.00;99.90;;;;;;6341705;22;19998;-88
2024/01/19 05:22:15;;;;;;;10.45;3.90;;;0.10;99.90;;;;;;6341310;22;20006;-88
2024/01/19 05:24:43;;;;;;;6.30;2.65;;;0.10;99.90;;;;;;6341629;22;20002;-88
2024/01/19 05:27:09;;;;;;;12.98;3.20;;;0.10;99.90;;;;;;6341327;22;20002;-87
2024/01/19 05:29:35;;;;;;;6.55;3.28;;;0.10;99.90;;;;;;6315486;22;20011;-85
2024/01/19 05:32:01;;;;;;;6.47;3.75;;;0.00;99.90;;;;;;6341995;22;20002;-88
2024/01/19 05:34:27;;;;;;;6.03;3.28;;;0.00;99.90;;;;;;6341874;22;20042;-87
2024/01/19 05:36:53;;;;;;;6.95;2.60;;;0.00;99.90;;;;;;6342069;22;20109;-87
2024/01/19 05:39:19;;;;;;;3.88;2.72;;;0.10;99.90;;;;;;6341866;22;20082;-87
2024/01/19 05:41:45;;;;;;;7.57;3.50;;;0.10;99.90;;;;;;6342517;22;20052;-89
2024/01/19 05:44:11;;;;;;;6.32;3.63;;;0.20;99.90;;;;;;6316412;22;20379;-88
2024/01/19 05:46:36;;;;;;;6.57;2.90;;;0.20;99.90;;;;;;6341482;22;20028;-88
2024/01/19 05:49:04;;;;;;;11.48;5.63;;;0.20;99.90;;;;;;6341972;22;20080;-87
2024/01/19 05:51:30;;;;;;;10.02;3.20;;;0.20;99.90;;;;;;6342267;22;20013;-87
2024/01/19 05:53:56;;;;;;;5.70;3.58;;;0.20;99.90;;;;;;6341622;22;20010;-88
2024/01/19 05:56:21;;;;;;;9.55;3.40;;;0.20;99.90;;;;;;6341279;22;20021;-88
2024/01/19 05:58:47;;;;;;;5.88;3.25;;;0.20;99.90;;;;;;6342791;22;20033;-87
2024/01/19 06:01:13;;;;;;;6.30;2.95;;;0.20;99.90;;;;;;6342121;22;20013;-88
2024/01/19 06:03:38;;;;;;;5.88;2.80;;;0.20;99.90;;;;;;6341977;22;20486;-88
2024/01/19 06:06:05;;;;;;;7.03;2.47;;;0.20;99.90;;;;;;6341081;22;20054;-87
2024/01/19 06:08:31;;;;;;;6.68;2.88;;;0.20;99.90;;;;;;6341142;22;20014;-87
2024/01/19 06:10:57;;;;;;;6.82;2.72;;;0.10;99.90;;;;;;6341783;22;20010;-87
2024/01/19 06:13:23;;;;;;;5.90;2.45;;;0.20;99.90;;;;;;6342161;22;20557;-88
2024/01/19 06:15:50;;;;;;;6.30;2.53;;;0.20;99.90;;;;;;6342319;22;20006;-87
2024/01/19 06:18:16;;;;;;;3.25;2.20;;;0.20;99.90;;;;;;6342585;22;20014;-86
2024/01/19 06:20:42;;;;;;;6.72;2.33;;;0.20;99.90;;;;;;6373562;22;20421;-89
2024/01/19 06:23:12;;;;;;;8.35;2.17;;;0.20;99.90;;;;;;6346418;22;20002;-88
2024/01/19 06:25:40;;;;;;;4.25;1.88;;;0.20;99.90;;;;;;6346464;22;20003;-90
2024/01/19 06:28:06;;;;;;;5.40;1.60;;;0.20;99.90;;;;;;6343194;22;20006;-87
2024/01/19 06:30:32;;;;;;;6.70;2.17;;;0.30;99.90;;;;;;6370739;22;20009;-87
2024/01/19 06:32:58;;;;;;;5.55;1.90;;;0.30;99.90;;;;;;6343195;22;20425;-87
2024/01/19 06:35:24;;;;;;;6.30;1.73;;;0.30;99.90;;;;;;6344089;22;20030;-89
2024/01/19 06:37:49;;;;;;;4.57;1.77;;;0.30;99.90;;;;;;6342744;22;20018;-89
2024/01/19 06:40:15;;;;;;;7.38;1.85;;;0.40;99.90;;;;;;6343272;22;20001;-89
2024/01/19 06:42:44;;;;;;;2.53;1.75;;;0.40;99.90;;;;;;6371454;22;20036;-89
2024/01/19 06:45:09;;;;;;;5.95;2.00;;;0.40;99.90;;;;;;6343540;22;20329;-89
2024/01/19 06:47:35;;;;;;;9.95;2.20;;;0.40;99.90;;;;;;6342594;22;20002;-88
2024/01/19 06:50:01;;;;;;;5.85;1.63;;;0.40;99.90;;;;;;6342799;22;20009;-88
2024/01/19 06:52:27;;;;;;;4.20;1.80;;;0.40;99.90;;;;;;6343693;22;20003;-88
2024/01/19 06:54:53;;;;;;;5.82;1.65;;;0.40;99.90;;;;;;6343262;22;20013;-89
2024/01/19 06:57:18;;;;;;;7.15;2.85;;;0.40;99.90;;;;;;6316199;22;20018;-88
2024/01/19 06:59:44;;;;;;;4.20;2.00;;;0.40;99.90;;;;;;6338782;22;20069;-88
2024/01/19 07:02:10;;;;;;;6.38;1.83;;;0.40;99.90;;;;;;6311767;22;20017;-89
2024/01/19 07:04:36;;;;;;;5.10;1.90;;;0.40;99.90;;;;;;6311975;22;20002;-89
2024/01/19 07:07:02;;;;;;;7.25;2.55;;;0.40;99.90;;;;;;6312134;22;20011;-88
2024/01/19 07:09:29;;;;;;;6.32;1.90;;;0.40;99.90;;;;;;6312558;22;20003;-88
2024/01/19 07:11:55;;;;;;;4.47;1.60;;;0.50;99.90;;;;;;6311979;22;20444;-86
2024/01/19 07:14:21;;;;;;;9.15;2.17;;;0.50;99.90;;;;;;6312264;22;20014;-87
2024/01/19 07:16:48;;;;;;;8.63;2.50;;;0.50;99.90;;;;;;6311605;22;20011;-87
2024/01/19 07:19:13;;;;;;;6.78;1.95;;;0.50;99.90;;;;;;6338847;22;19999;-86
2024/01/19 07:21:40;;;;;;;8.15;2.00;;;0.50;99.90;;;;;;6339456;22;20065;-86
2024/01/19 07:24:11;;;;;;;7.03;2.17;;;0.60;99.90;;;;;;6311582;22;20007;-87
2024/01/19 07:26:37;;;;;;;8.48;2.28;;;0.60;99.90;;;;;;6314600;22;20006;-86
2024/01/19 07:29:06;;;;;;;2.38;1.67;;;0.60;99.90;;;;;;6344133;22;20006;-87
2024/01/19 07:31:33;;;;;;;7.47;1.90;;;0.60;99.90;;;;;;6316302;22;20443;-87
2024/01/19 07:34:00;;;;;;;4.90;2.00;;;0.70;99.90;;;;;;6318053;22;20003;-86
2024/01/19 07:36:26;;;;;;;4.40;2.28;;;0.70;99.90;;;;;;6315919;22;20022;-87
2024/01/19 07:38:52;;;;;;;6.82;2.28;;;0.80;99.90;;;;;;6313791;22;20003;-87
2024/01/19 07:41:19;;;;;;;5.60;2.08;;;0.70;99.90;;;;;;6313275;22;20032;-86
2024/01/19 07:43:46;;;;;;;2.45;1.60;;;0.80;99.90;;;;;;6313069;22;20032;-86
2024/01/19 07:46:14;;;;;;;2.95;1.42;;;0.80;99.90;;;;;;6312498;22;20010;-87
2024/01/19 07:48:40;;;;;;;4.22;1.55;;;0.80;99.90;;;;;;6312622;22;20013;-86
2024/01/19 07:51:06;;;;;;;6.47;1.70;;;0.80;99.90;;;;;;6312812;22;19998;-86
2024/01/19 07:53:32;;;;;;;5.63;1.95;;;0.80;99.90;;;;;;6340882;22;20007;-85
2024/01/19 07:55:58;;;;;;;5.70;1.50;;;0.90;99.90;;;;;;6316438;22;20010;-85
2024/01/19 07:58:24;;;;;;;7.05;1.75;;;0.90;99.90;;;;;;6338941;22;20060;-86
2024/01/19 08:00:50;;;;;;;10.48;1.83;;;0.90;99.90;;;;;;6339205;22;20001;-85
2024/01/19 08:03:18;;;;;;;7.15;1.17;;;1.00;99.90;;;;;;6338488;22;20010;-85
2024/01/19 08:05:44;;;;;;;8.18;2.13;;;1.00;99.90;;;;;;6338222;22;20048;-86
2024/01/19 08:08:10;;;;;;;7.53;1.98;;;1.00;99.90;;;;;;6339587;22;20003;-85
2024/01/19 08:10:36;;;;;;;8.77;2.45;;;1.00;99.90;;;;;;6312453;22;20345;-87
2024/01/19 08:13:03;;;;;;;9.82;2.88;;;1.00;99.90;;;;;;6339618;22;20002;-86
2024/01/19 08:15:30;;;;;;;9.35;2.38;;;0.90;99.90;;;;;;6339770;22;20003;-86
2024/01/19 08:17:56;;;;;;;10.80;3.28;;;0.90;99.90;;;;;;6337924;22;20018;-88
2024/01/19 08:20:24;;;;;;;17.52;6.07;;;0.90;99.90;;;;;;6339956;22;20429;-87
2024/01/19 08:22:55;;;;;;;9.43;3.40;;;0.90;99.90;;;;;;6340561;22;20007;-87
2024/01/19 08:25:21;;;;;;;14.27;3.15;;;0.90;99.90;;;;;;6314141;22;20397;-88
2024/01/19 08:27:47;;;;;;;6.53;2.15;;;0.90;99.90;;;;;;6338739;22;20009;-88
2024/01/19 08:30:16;;;;;;;3.15;1.60;;;0.90;99.90;;;;;;6339598;22;20003;-86
2024/01/19 08:32:41;;;;;;;6.25;1.58;;;0.90;99.90;;;;;;6315222;22;20010;-88
2024/01/19 08:35:10;;;;;;;6.57;2.20;;;0.90;99.90;;;;;;6339117;22;20375;-85
2024/01/19 08:37:38;;;;;;;6.38;2.00;;;0.90;99.90;;;;;;6339464;22;20014;-87
2024/01/19 08:40:05;;;;;;;2.97;1.60;;;0.90;99.90;;;;;;6310916;22;20013;-86
2024/01/19 08:42:32;;;;;;;8.63;1.73;;;0.90;99.90;;;;;;6337588;22;20015;-87
2024/01/19 08:44:58;;;;;;;5.13;2.00;;;0.90;99.90;;;;;;6339260;22;20049;-86
2024/01/19 08:47:24;;;;;;;4.40;1.95;;;0.90;99.90;;;;;;6338688;22;19995;-87
2024/01/19 08:49:49;;;;;;;2.85;1.60;;;0.90;99.90;;;;;;6338982;22;20430;-88
2024/01/19 08:52:16;;;;;;;3.15;2.05;;;0.80;99.90;;;;;;6335258;22;20013;-88
2024/01/19 08:54:42;;;;;;;5.35;1.65;;;0.90;99.90;;;;;;6336545;22;20389;-87
2024/01/19 08:57:08;;;;;;;4.57;1.40;;;0.80;99.90;;;;;;6336984;22;20046;-87
2024/01/19 08:59:33;;;;;;;19.30;5.80;;;0.80;99.90;;;;;;6336894;22;20029;-86
2024/01/19 09:01:59;;;;;;;13.85;4.30;;;0.80;99.90;;;;;;6336015;22;20007;-87
2024/01/19 09:04:25;;;;;;;22.00;6.57;;;0.80;99.90;;;;;;6336855;22;20006;-87
2024/01/19 09:06:51;;;;;;;24.05;7.05;;;0.80;99.90;;;;;;6336619;22;20007;-88
2024/01/19 09:09:17;;;;;;;9.27;2.38;;;0.80;99.90;;;;;;6336927;22;20013;-87
2024/01/19 09:11:44;;;;;;;4.10;1.33;;;0.80;99.90;;;;;;6338659;22;19995;-87
2024/01/19 09:14:10;;;;;;;5.10;1.75;;;0.80;99.90;;;;;;6336737;22;20007;-87
2024/01/19 09:16:36;;;;;;;7.40;1.75;;;0.90;99.90;;;;;;6336618;22;20014;-88
2024/01/19 09:19:02;;;;;;;5.28;2.17;;;0.90;99.90;;;;;;6338360;22;20011;-91
2024/01/19 09:21:29;;;;;;;5.43;1.75;;;1.00;99.90;;;;;;6336016;22;20024;-87
2024/01/19 09:23:54;;;;;;;2.78;1.50;;;1.00;99.90;;;;;;6336981;22;20002;-87
2024/01/19 09:26:22;;;;;;;4.28;1.48;;;1.10;99.90;;;;;;6336020;22;20007;-88
2024/01/19 09:28:47;;;;;;;3.25;1.50;;;1.10;99.90;;;;;;6337717;22;19998;-88
2024/01/19 09:31:14;;;;;;;8.23;1.38;;;1.20;99.90;;;;;;6337468;22;20074;-88
2024/01/19 09:33:40;;;;;;;2.95;1.40;;;1.30;99.90;;;;;;6336212;22;20428;-88
2024/01/19 09:36:06;;;;;;;6.80;2.50;;;1.40;99.90;;;;;;6336052;22;20091;-87
2024/01/19 09:38:37;;;;;;;5.78;1.98;;;1.50;99.90;;;;;;6336179;22;20014;-88
2024/01/19 09:41:24;;;;;;;2.88;1.63;;;1.70;99.90;;;;;;6335735;22;20311;-88
2024/01/19 09:43:55;;;;;;;3.47;1.25;;;1.80;99.90;;;;;;6336267;22;20089;-88
2024/01/19 09:46:31;;;;;;;4.80;1.90;;;2.00;99.90;;;;;;6335926;22;20006;-88
2024/01/19 09:49:03;;;;;;;3.38;1.90;;;2.10;99.90;;;;;;6336689;22;20097;-87
2024/01/19 09:51:55;;;;;;;4.07;1.80;;;2.30;99.90;;;;;;6336328;22;20011;-88
2024/01/19 09:54:34;;;;;;;5.18;2.30;;;2.50;99.90;;;;;;6336592;22;20011;-88
2024/01/19 09:57:01;;;;;;;7.07;3.13;;;2.60;99.90;;;;;;6336539;22;20038;-88
2024/01/19 09:59:32;;;;;;;7.93;2.53;;;2.80;99.90;;;;;;6336136;22;20003;-88
2024/01/19 10:01:58;;;;;;;5.63;2.63;;;2.90;99.90;;;;;;6337844;22;20030;-89
2024/01/19 10:04:25;;;;;;;4.45;2.05;;;3.20;99.90;;;;;;6337019;22;20034;-88
2024/01/19 10:06:52;;;;;;;9.52;2.58;;;3.30;99.90;;;;;;6338799;22;20417;-88
2024/01/19 10:09:20;;;;;;;2.95;1.73;;;3.40;99.90;;;;;;6337531;22;20072;-88
2024/01/19 10:11:51;;;;;;;1.70;1.20;;;3.40;99.90;;;;;;6337005;22;20009;-87
2024/01/19 10:14:20;;;;;;;5.63;1.55;;;3.20;99.90;;;;;;6336974;22;20444;-88
2024/01/19 10:16:50;;;;;;;4.43;1.90;;;3.10;99.90;;;;;;6336201;22;20437;-89
2024/01/19 10:19:17;;;;;;;4.35;1.45;;;3.00;99.90;;;;;;6331066;22;20013;-88
2024/01/19 10:21:43;;;;;;;2.75;1.70;;;3.00;99.90;;;;;;6335790;22;20003;-87
2024/01/19 10:24:19;;;;;;;8.93;1.58;;;2.90;99.90;;;;;;6336260;22;20038;-88
2024/01/19 10:26:52;;;;;;;4.70;2.00;;;2.90;99.90;;;;;;6336950;22;20094;-88
2024/01/19 10:29:18;;;;;;;4.15;1.40;;;2.80;99.90;;;;;;6337719;22;19995;-89
2024/01/19 10:31:55;;;;;;;3.65;1.30;;;2.80;99.90;;;;;;6338257;22;19998;-88
2024/01/19 10:34:22;;;;;;;4.20;1.33;;;2.70;99.90;;;;;;6339218;22;20010;-88
2024/01/19 10:36:49;;;;;;;5.57;1.50;;;2.60;99.90;;;;;;6336681;22;20011;-86
2024/01/19 10:39:31;;;;;;;3.45;1.58;;;2.60;99.90;;;;;;6338057;22;20010;-86
2024/01/19 10:42:05;;;;;;;4.30;1.40;;;2.50;99.90;;;;;;6336875;22;20003;-88
2024/01/19 10:44:32;;;;;;;3.20;1.20;;;2.50;99.90;;;;;;6337010;22;20334;-88
2024/01/19 10:46:57;;;;;;;2.08;1.30;;;2.50;99.90;;;;;;6339301;22;20014;-88
2024/01/19 10:49:24;;;;;;;5.38;1.60;;;2.50;99.90;;;;;;6339243;22;20090;-88
2024/01/19 10:51:49;;;;;;;6.35;1.60;;;2.50;99.90;;;;;;6337902;22;20010;-86
2024/01/19 10:54:27;;;;;;;5.03;1.48;;;2.50;99.90;;;;;;6335721;22;20026;-88
2024/01/19 10:57:03;;;;;;;0.73;0.70;;;2.50;99.90;;;;;;6334938;22;20043;-87
2024/01/19 10:59:29;;;;;;;1.70;1.00;;;2.40;99.90;;;;;;6335343;22;20017;-87
2024/01/19 11:02:03;;;;;;;3.72;1.33;;;2.40;99.90;;;;;;6334924;22;20003;-87
2024/01/19 11:04:29;;;;;;;10.82;1.48;;;2.40;99.90;;;;;;6336656;22;20453;-88
2024/01/19 11:06:55;;;;;;;10.45;2.05;;;2.40;99.90;;;;;;6336460;22;20006;-88
2024/01/19 11:09:21;;;;;;;4.50;1.55;;;2.50;99.90;;;;;;6338673;22;20010;-87
2024/01/19 11:12:01;;;;;;;4.47;1.90;;;2.50;99.90;;;;;;6338563;22;20006;-88
2024/01/19 11:14:27;;;;;;;5.85;1.35;;;2.60;99.90;;;;;;6338528;22;19995;-88
2024/01/19 11:16:56;;;;;;;6.00;1.33;;;2.70;99.90;;;;;;6340595;22;20003;-89
2024/01/19 11:19:23;;;;;;;7.82;1.55;;;2.70;99.90;;;;;;6339535;22;20003;-87
2024/01/19 11:21:49;;;;;;;9.68;2.58;;;2.80;99.90;;;;;;6338386;22;20086;-88
2024/01/19 11:24:17;;;;;;;4.07;1.30;;;2.80;99.90;;;;;;6338651;22;20026;-87
2024/01/19 11:27:12;;;;;;;5.82;1.65;;;2.80;99.90;;;;;;6338437;22;20007;-88
2024/01/19 11:29:44;;;;;;;6.75;2.33;;;2.80;99.90;;;;;;6323113;22;20006;-87
2024/01/19 11:32:11;;;;;;;6.05;1.40;;;2.90;99.90;;;;;;6338323;22;20011;-88
2024/01/19 11:34:50;;;;;;;5.47;1.45;;;2.90;99.90;;;;;;6340229;22;19995;-88
2024/01/19 11:37:44;;;;;;;6.65;1.63;;;2.90;99.90;;;;;;6338324;22;20076;-88
2024/01/19 11:40:30;;;;;;;6.65;2.15;;;3.00;99.90;;;;;;6338963;22;20433;-88
2024/01/19 11:42:57;;;;;;;2.80;1.30;;;3.10;99.90;;;;;;6317338;22;20058;-88
2024/01/19 11:45:42;;;;;;;7.00;1.52;;;3.10;99.90;;;;;;6338494;22;20010;-88
2024/01/19 11:48:22;;;;;;;3.40;1.50;;;3.20;99.90;;;;;;6338812;22;19998;-88
2024/01/19 11:50:51;;;;;;;8.00;2.80;;;3.30;99.90;;;;;;6339091;22;20157;-88
2024/01/19 11:53:17;;;;;;;5.85;1.65;;;3.40;99.90;;;;;;6338622;22;20003;-88
2024/01/19 11:55:48;;;;;;;3.47;1.60;;;3.50;99.90;;;;;;6339038;22;20087;-89
2024/01/19 11:58:27;;;;;;;4.75;1.60;;;3.70;99.90;;;;;;6340206;22;20429;-89
2024/01/19 12:00:57;;;;;;;15.65;3.17;;;3.80;99.90;;;;;;6340744;22;20084;-88
2024/01/19 12:03:23;;;;;;;9.07;2.22;;;3.80;99.90;;;;;;6338974;22;20082;-89
2024/01/19 12:05:50;;;;;;;4.10;1.33;;;3.90;99.90;;;;;;6340519;22;19999;-90
2024/01/19 12:08:17;;;;;;;7.88;1.75;;;3.90;99.90;;;;;;6339191;22;20029;-88
2024/01/19 12:10:43;;;;;;;7.45;2.08;;;3.90;99.90;;;;;;6338591;22;20006;-88
2024/01/19 12:13:09;;;;;;;7.05;2.63;;;3.80;99.90;;;;;;6338609;22;20013;-88
2024/01/19 12:15:36;;;;;;;15.82;3.30;;;3.80;99.90;;;;;;6339061;22;20006;-88
2024/01/19 12:18:05;;;;;;;5.25;2.10;;;3.80;99.90;;;;;;6338503;22;20041;-89
2024/01/19 12:20:31;;;;;;;4.70;1.80;;;3.80;99.90;;;;;;6338990;22;20007;-89
2024/01/19 12:22:58;;;;;;;11.13;2.50;;;3.70;99.90;;;;;;6339883;22;20014;-89
2024/01/19 12:25:25;;;;;;;7.60;1.90;;;3.80;99.90;;;;;;6339186;22;20334;-88
2024/01/19 12:28:02;;;;;;;6.60;2.25;;;3.80;99.90;;;;;;6338616;22;20422;-88
2024/01/19 12:30:34;;;;;;;7.50;1.92;;;3.80;99.90;;;;;;6338350;22;20003;-88
2024/01/19 12:33:16;;;;;;;5.25;2.25;;;3.70;99.90;;;;;;6339197;22;20003;-86
2024/01/19 12:35:42;;;;;;;11.07;2.00;;;3.70;99.90;;;;;;6340085;22;20040;-89
2024/01/19 12:38:09;;;;;;;6.53;1.50;;;3.80;99.90;;;;;;6339045;22;20019;-88
2024/01/19 12:40:36;;;;;;;5.63;1.55;;;3.80;99.90;;;;;;6340173;22;19999;-88
2024/01/19 12:43:03;;;;;;;9.70;1.88;;;3.70;99.90;;;;;;6340653;22;20414;-89
2024/01/19 12:45:29;;;;;;;8.05;1.23;;;3.70;99.90;;;;;;6337969;22;20102;-87
2024/01/19 12:47:59;;;;;;;2.30;1.20;;;3.80;99.90;;;;;;6338215;22;20007;-88
2024/01/19 12:50:29;;;;;;;3.85;1.25;;;3.80;99.90;;;;;;6338100;22;20489;-86
2024/01/19 12:52:56;;;;;;;5.53;1.00;;;3.80;99.90;;;;;;6337861;22;20009;-87